sensor_id;sensor_type;location;lat;lon;timestamp;P1;durP1;ratioP1;P2;durP2;ratioP2
4971;SDS011;2501;51.214;6.768;2022-12-26T00:01:50;9.43;;;7.40;;
4971;SDS011;2501;51.214;6.768;2022-12-26T00:04:22;17.95;;;7.90;;
4971;SDS011;2501;51.214;6.768;2022-12-26T00:06:52;13.07;;;7.95;;
4971;SDS011;2501;51.214;6.768;2022-12-26T00:09:21;13.95;;;8.80;;
4971;SDS011;2501;51.214;6.768;2022-12-26T00:11:52;15.15;;;8.95;;
4971;SDS011;2501;51.214;6.768;2022-12-26T00:14:32;18.17;;;8.45;;
4971;SDS011;2501;51.214;6.768;2022-12-26T00:17:07;13.55;;;8.13;;
4971;SDS011;2501;51.214;6.768;2022-12-26T00:19:38;12.32;;;7.88;;
4971;SDS011;2501;51.214;6.768;2022-12-26T00:22:07;16.55;;;8.45;;
4971;SDS011;2501;51.214;6.768;2022-12-26T00:24:35;19.98;;;8.80;;
4971;SDS011;2501;51.214;6.768;2022-12-26T00:27:04;11.32;;;8.02;;
4971;SDS011;2501;51.214;6.768;2022-12-26T00:29:32;12.57;;;8.10;;
4971;SDS011;2501;51.214;6.768;2022-12-26T00:32:00;12.45;;;7.80;;
4971;SDS011;2501;51.214;6.768;2022-12-26T00:34:29;17.47;;;8.37;;
4971;SDS011;2501;51.214;6.768;2022-12-26T00:37:00;17.08;;;7.40;;
4971;SDS011;2501;51.214;6.768;2022-12-26T00:39:28;13.77;;;7.80;;
4971;SDS011;2501;51.214;6.768;2022-12-26T00:41:57;14.38;;;8.32;;
4971;SDS011;2501;51.214;6.768;2022-12-26T00:44:25;11.70;;;7.78;;
4971;SDS011;2501;51.214;6.768;2022-12-26T00:46:53;14.48;;;7.50;;
4971;SDS011;2501;51.214;6.768;2022-12-26T00:49:22;11.40;;;7.20;;
4971;SDS011;2501;51.214;6.768;2022-12-26T00:51:50;11.93;;;7.20;;
4971;SDS011;2501;51.214;6.768;2022-12-26T00:54:21;12.55;;;7.00;;
4971;SDS011;2501;51.214;6.768;2022-12-26T00:56:50;10.55;;;6.13;;
4971;SDS011;2501;51.214;6.768;2022-12-26T00:59:18;7.95;;;5.30;;
4971;SDS011;2501;51.214;6.768;2022-12-26T01:01:46;11.35;;;5.35;;
4971;SDS011;2501;51.214;6.768;2022-12-26T01:04:15;12.70;;;5.10;;
4971;SDS011;2501;51.214;6.768;2022-12-26T01:06:43;8.80;;;5.00;;
4971;SDS011;2501;51.214;6.768;2022-12-26T01:09:12;10.30;;;4.47;;
4971;SDS011;2501;51.214;6.768;2022-12-26T01:11:43;4.90;;;4.37;;
4971;SDS011;2501;51.214;6.768;2022-12-26T01:14:12;5.35;;;4.85;;
4971;SDS011;2501;51.214;6.768;2022-12-26T01:16:44;8.10;;;4.70;;
4971;SDS011;2501;51.214;6.768;2022-12-26T01:19:13;6.77;;;4.27;;
4971;SDS011;2501;51.214;6.768;2022-12-26T01:21:41;6.10;;;4.35;;
4971;SDS011;2501;51.214;6.768;2022-12-26T01:24:10;4.68;;;4.00;;
4971;SDS011;2501;51.214;6.768;2022-12-26T01:26:38;5.50;;;4.00;;
4971;SDS011;2501;51.214;6.768;2022-12-26T01:29:10;5.10;;;4.10;;
4971;SDS011;2501;51.214;6.768;2022-12-26T01:31:38;6.05;;;4.05;;
4971;SDS011;2501;51.214;6.768;2022-12-26T01:34:06;6.32;;;3.78;;
4971;SDS011;2501;51.214;6.768;2022-12-26T01:36:35;7.32;;;4.00;;
4971;SDS011;2501;51.214;6.768;2022-12-26T01:39:03;5.38;;;4.45;;
4971;SDS011;2501;51.214;6.768;2022-12-26T01:41:32;8.75;;;4.50;;
4971;SDS011;2501;51.214;6.768;2022-12-26T01:44:01;6.07;;;3.72;;
4971;SDS011;2501;51.214;6.768;2022-12-26T01:46:34;4.20;;;3.80;;
4971;SDS011;2501;51.214;6.768;2022-12-26T01:49:07;3.90;;;3.50;;
4971;SDS011;2501;51.214;6.768;2022-12-26T01:51:43;8.32;;;4.00;;
4971;SDS011;2501;51.214;6.768;2022-12-26T01:54:18;4.80;;;4.30;;
4971;SDS011;2501;51.214;6.768;2022-12-26T01:56:47;5.38;;;4.22;;
4971;SDS011;2501;51.214;6.768;2022-12-26T01:59:17;9.23;;;4.53;;
4971;SDS011;2501;51.214;6.768;2022-12-26T02:01:50;5.55;;;4.30;;
4971;SDS011;2501;51.214;6.768;2022-12-26T02:04:21;8.05;;;5.00;;
4971;SDS011;2501;51.214;6.768;2022-12-26T02:07:06;6.72;;;5.10;;
4971;SDS011;2501;51.214;6.768;2022-12-26T02:09:35;6.03;;;4.50;;
4971;SDS011;2501;51.214;6.768;2022-12-26T02:12:06;6.30;;;5.07;;
4971;SDS011;2501;51.214;6.768;2022-12-26T02:14:39;12.32;;;5.80;;
4971;SDS011;2501;51.214;6.768;2022-12-26T02:17:10;7.27;;;5.00;;
4971;SDS011;2501;51.214;6.768;2022-12-26T02:19:41;9.70;;;5.27;;
4971;SDS011;2501;51.214;6.768;2022-12-26T02:22:25;5.80;;;4.53;;
4971;SDS011;2501;51.214;6.768;2022-12-26T02:25:34;11.50;;;5.20;;
4971;SDS011;2501;51.214;6.768;2022-12-26T02:28:39;8.93;;;5.25;;
4971;SDS011;2501;51.214;6.768;2022-12-26T02:31:33;11.23;;;5.95;;
4971;SDS011;2501;51.214;6.768;2022-12-26T02:34:08;7.88;;;5.80;;
4971;SDS011;2501;51.214;6.768;2022-12-26T02:36:55;11.07;;;5.35;;
4971;SDS011;2501;51.214;6.768;2022-12-26T02:39:50;9.73;;;5.60;;
4971;SDS011;2501;51.214;6.768;2022-12-26T02:42:30;8.60;;;5.07;;
4971;SDS011;2501;51.214;6.768;2022-12-26T02:45:10;8.55;;;4.97;;
4971;SDS011;2501;51.214;6.768;2022-12-26T02:48:02;8.10;;;5.00;;
4971;SDS011;2501;51.214;6.768;2022-12-26T02:50:40;7.97;;;4.60;;
4971;SDS011;2501;51.214;6.768;2022-12-26T02:53:33;10.80;;;5.40;;
4971;SDS011;2501;51.214;6.768;2022-12-26T02:56:20;10.73;;;5.20;;
4971;SDS011;2501;51.214;6.768;2022-12-26T02:59:11;13.25;;;5.70;;
4971;SDS011;2501;51.214;6.768;2022-12-26T03:01:58;11.35;;;5.95;;
4971;SDS011;2501;51.214;6.768;2022-12-26T03:04:43;7.43;;;6.00;;
4971;SDS011;2501;51.214;6.768;2022-12-26T03:07:30;8.73;;;5.28;;
4971;SDS011;2501;51.214;6.768;2022-12-26T03:10:15;11.13;;;5.28;;
4971;SDS011;2501;51.214;6.768;2022-12-26T03:13:00;7.22;;;4.93;;
4971;SDS011;2501;51.214;6.768;2022-12-26T03:15:40;6.35;;;4.72;;
4971;SDS011;2501;51.214;6.768;2022-12-26T03:18:25;9.48;;;4.47;;
4971;SDS011;2501;51.214;6.768;2022-12-26T03:20:58;4.22;;;3.80;;
4971;SDS011;2501;51.214;6.768;2022-12-26T03:23:27;6.05;;;4.10;;
4971;SDS011;2501;51.214;6.768;2022-12-26T03:25:58;4.30;;;3.63;;
4971;SDS011;2501;51.214;6.768;2022-12-26T03:28:42;7.55;;;4.63;;
4971;SDS011;2501;51.214;6.768;2022-12-26T03:31:12;9.07;;;4.60;;
4971;SDS011;2501;51.214;6.768;2022-12-26T03:33:41;5.57;;;4.07;;
4971;SDS011;2501;51.214;6.768;2022-12-26T03:36:32;8.68;;;4.50;;
4971;SDS011;2501;51.214;6.768;2022-12-26T03:39:12;9.60;;;5.10;;
4971;SDS011;2501;51.214;6.768;2022-12-26T03:42:11;6.00;;;4.40;;
4971;SDS011;2501;51.214;6.768;2022-12-26T03:44:59;6.88;;;3.90;;
4971;SDS011;2501;51.214;6.768;2022-12-26T03:47:50;7.55;;;4.38;;
4971;SDS011;2501;51.214;6.768;2022-12-26T03:50:38;4.40;;;4.10;;
4971;SDS011;2501;51.214;6.768;2022-12-26T03:53:36;4.65;;;4.25;;
4971;SDS011;2501;51.214;6.768;2022-12-26T03:56:24;4.25;;;3.85;;
4971;SDS011;2501;51.214;6.768;2022-12-26T03:59:13;7.05;;;4.00;;
4971;SDS011;2501;51.214;6.768;2022-12-26T04:02:00;6.10;;;3.83;;
4971;SDS011;2501;51.214;6.768;2022-12-26T04:04:44;5.05;;;3.42;;
4971;SDS011;2501;51.214;6.768;2022-12-26T04:07:26;3.97;;;3.42;;
4971;SDS011;2501;51.214;6.768;2022-12-26T04:10:14;4.85;;;3.40;;
4971;SDS011;2501;51.214;6.768;2022-12-26T04:12:58;4.43;;;3.40;;
4971;SDS011;2501;51.214;6.768;2022-12-26T04:15:43;3.80;;;3.20;;
4971;SDS011;2501;51.214;6.768;2022-12-26T04:18:32;3.80;;;3.50;;
4971;SDS011;2501;51.214;6.768;2022-12-26T04:21:19;3.50;;;3.10;;
4971;SDS011;2501;51.214;6.768;2022-12-26T04:24:06;3.83;;;3.53;;
4971;SDS011;2501;51.214;6.768;2022-12-26T04:26:55;4.10;;;3.50;;
4971;SDS011;2501;51.214;6.768;2022-12-26T04:29:40;3.45;;;3.15;;
4971;SDS011;2501;51.214;6.768;2022-12-26T04:32:22;2.80;;;2.70;;
4971;SDS011;2501;51.214;6.768;2022-12-26T04:35:14;2.80;;;2.60;;
4971;SDS011;2501;51.214;6.768;2022-12-26T04:37:59;2.72;;;2.53;;
4971;SDS011;2501;51.214;6.768;2022-12-26T04:40:43;3.42;;;3.13;;
4971;SDS011;2501;51.214;6.768;2022-12-26T04:43:33;2.80;;;2.70;;
4971;SDS011;2501;51.214;6.768;2022-12-26T04:46:15;3.40;;;3.10;;
4971;SDS011;2501;51.214;6.768;2022-12-26T04:48:46;3.60;;;3.25;;
4971;SDS011;2501;51.214;6.768;2022-12-26T04:51:29;4.15;;;3.40;;
4971;SDS011;2501;51.214;6.768;2022-12-26T04:53:57;5.65;;;3.50;;
4971;SDS011;2501;51.214;6.768;2022-12-26T04:56:26;5.40;;;3.63;;
4971;SDS011;2501;51.214;6.768;2022-12-26T04:58:57;7.83;;;5.77;;
4971;SDS011;2501;51.214;6.768;2022-12-26T05:01:25;4.30;;;3.87;;
4971;SDS011;2501;51.214;6.768;2022-12-26T05:04:12;4.07;;;3.67;;
4971;SDS011;2501;51.214;6.768;2022-12-26T05:06:53;3.92;;;3.53;;
4971;SDS011;2501;51.214;6.768;2022-12-26T05:09:34;6.47;;;3.90;;
4971;SDS011;2501;51.214;6.768;2022-12-26T05:12:04;5.80;;;4.93;;
4971;SDS011;2501;51.214;6.768;2022-12-26T05:14:37;5.90;;;4.53;;
4971;SDS011;2501;51.214;6.768;2022-12-26T05:17:05;5.45;;;4.30;;
4971;SDS011;2501;51.214;6.768;2022-12-26T05:19:47;6.68;;;4.57;;
4971;SDS011;2501;51.214;6.768;2022-12-26T05:22:28;5.35;;;4.85;;
4971;SDS011;2501;51.214;6.768;2022-12-26T05:25:24;6.80;;;4.68;;
4971;SDS011;2501;51.214;6.768;2022-12-26T05:28:07;4.75;;;4.35;;
4971;SDS011;2501;51.214;6.768;2022-12-26T05:30:52;5.95;;;5.18;;
4971;SDS011;2501;51.214;6.768;2022-12-26T05:33:20;6.47;;;5.15;;
4971;SDS011;2501;51.214;6.768;2022-12-26T05:36:01;5.05;;;4.65;;
4971;SDS011;2501;51.214;6.768;2022-12-26T05:38:30;7.00;;;5.30;;
4971;SDS011;2501;51.214;6.768;2022-12-26T05:40:58;6.00;;;5.40;;
4971;SDS011;2501;51.214;6.768;2022-12-26T05:43:26;8.30;;;5.63;;
4971;SDS011;2501;51.214;6.768;2022-12-26T05:45:58;9.35;;;6.32;;
4971;SDS011;2501;51.214;6.768;2022-12-26T05:48:26;6.30;;;5.70;;
4971;SDS011;2501;51.214;6.768;2022-12-26T05:50:56;12.50;;;7.30;;
4971;SDS011;2501;51.214;6.768;2022-12-26T05:53:25;7.63;;;6.03;;
4971;SDS011;2501;51.214;6.768;2022-12-26T05:55:54;7.03;;;5.90;;
4971;SDS011;2501;51.214;6.768;2022-12-26T05:58:22;6.05;;;5.40;;
4971;SDS011;2501;51.214;6.768;2022-12-26T06:00:51;7.88;;;5.38;;
4971;SDS011;2501;51.214;6.768;2022-12-26T06:03:22;5.72;;;5.22;;
4971;SDS011;2501;51.214;6.768;2022-12-26T06:05:50;5.68;;;5.18;;
4971;SDS011;2501;51.214;6.768;2022-12-26T06:08:19;6.40;;;5.70;;
4971;SDS011;2501;51.214;6.768;2022-12-26T06:10:47;7.72;;;5.30;;
4971;SDS011;2501;51.214;6.768;2022-12-26T06:13:15;7.15;;;5.35;;
4971;SDS011;2501;51.214;6.768;2022-12-26T06:15:44;5.85;;;5.25;;
4971;SDS011;2501;51.214;6.768;2022-12-26T06:18:12;7.70;;;5.40;;
4971;SDS011;2501;51.214;6.768;2022-12-26T06:20:43;4.80;;;4.40;;
4971;SDS011;2501;51.214;6.768;2022-12-26T06:23:11;6.80;;;4.80;;
4971;SDS011;2501;51.214;6.768;2022-12-26T06:25:40;6.43;;;5.03;;
4971;SDS011;2501;51.214;6.768;2022-12-26T06:28:08;6.60;;;5.50;;
4971;SDS011;2501;51.214;6.768;2022-12-26T06:30:37;5.78;;;5.28;;
4971;SDS011;2501;51.214;6.768;2022-12-26T06:33:05;6.90;;;5.20;;
4971;SDS011;2501;51.214;6.768;2022-12-26T06:35:34;6.40;;;5.50;;
4971;SDS011;2501;51.214;6.768;2022-12-26T06:38:05;7.03;;;5.90;;
4971;SDS011;2501;51.214;6.768;2022-12-26T06:40:33;5.68;;;5.10;;
4971;SDS011;2501;51.214;6.768;2022-12-26T06:43:04;9.43;;;6.20;;
4971;SDS011;2501;51.214;6.768;2022-12-26T06:45:33;8.15;;;6.15;;
4971;SDS011;2501;51.214;6.768;2022-12-26T06:48:02;6.07;;;5.47;;
4971;SDS011;2501;51.214;6.768;2022-12-26T06:50:31;7.10;;;5.70;;
4971;SDS011;2501;51.214;6.768;2022-12-26T06:53:05;7.77;;;6.20;;
4971;SDS011;2501;51.214;6.768;2022-12-26T06:55:33;6.38;;;5.60;;
4971;SDS011;2501;51.214;6.768;2022-12-26T06:58:02;9.07;;;5.63;;
4971;SDS011;2501;51.214;6.768;2022-12-26T07:00:30;6.47;;;4.57;;
4971;SDS011;2501;51.214;6.768;2022-12-26T07:02:58;5.82;;;4.80;;
4971;SDS011;2501;51.214;6.768;2022-12-26T07:05:27;4.00;;;3.60;;
4971;SDS011;2501;51.214;6.768;2022-12-26T07:07:55;5.45;;;3.20;;
4971;SDS011;2501;51.214;6.768;2022-12-26T07:10:26;8.50;;;3.30;;
4971;SDS011;2501;51.214;6.768;2022-12-26T07:12:55;3.92;;;2.80;;
4971;SDS011;2501;51.214;6.768;2022-12-26T07:15:23;3.00;;;2.80;;
4971;SDS011;2501;51.214;6.768;2022-12-26T07:17:51;4.30;;;2.90;;
4971;SDS011;2501;51.214;6.768;2022-12-26T07:20:20;3.30;;;2.60;;
4971;SDS011;2501;51.214;6.768;2022-12-26T07:22:48;4.43;;;2.33;;
4971;SDS011;2501;51.214;6.768;2022-12-26T07:25:16;4.32;;;2.38;;
4971;SDS011;2501;51.214;6.768;2022-12-26T07:27:47;2.90;;;2.60;;
4971;SDS011;2501;51.214;6.768;2022-12-26T07:30:20;3.30;;;2.30;;
4971;SDS011;2501;51.214;6.768;2022-12-26T07:32:48;2.45;;;2.17;;
4971;SDS011;2501;51.214;6.768;2022-12-26T07:35:17;2.97;;;2.67;;
4971;SDS011;2501;51.214;6.768;2022-12-26T07:37:45;2.20;;;2.00;;
4971;SDS011;2501;51.214;6.768;2022-12-26T07:40:14;2.25;;;1.90;;
4971;SDS011;2501;51.214;6.768;2022-12-26T07:42:42;2.30;;;2.20;;
4971;SDS011;2501;51.214;6.768;2022-12-26T07:45:13;2.30;;;1.80;;
4971;SDS011;2501;51.214;6.768;2022-12-26T07:47:42;3.58;;;2.40;;
4971;SDS011;2501;51.214;6.768;2022-12-26T07:50:10;2.83;;;2.00;;
4971;SDS011;2501;51.214;6.768;2022-12-26T07:52:39;2.70;;;1.60;;
4971;SDS011;2501;51.214;6.768;2022-12-26T07:55:08;2.70;;;1.50;;
4971;SDS011;2501;51.214;6.768;2022-12-26T07:57:36;3.60;;;1.55;;
4971;SDS011;2501;51.214;6.768;2022-12-26T08:00:05;2.40;;;1.50;;
4971;SDS011;2501;51.214;6.768;2022-12-26T08:02:38;1.60;;;1.50;;
4971;SDS011;2501;51.214;6.768;2022-12-26T08:05:06;3.90;;;1.30;;
4971;SDS011;2501;51.214;6.768;2022-12-26T08:07:35;1.67;;;1.30;;
4971;SDS011;2501;51.214;6.768;2022-12-26T08:10:04;1.25;;;1.15;;
4971;SDS011;2501;51.214;6.768;2022-12-26T08:12:33;2.40;;;1.10;;
4971;SDS011;2501;51.214;6.768;2022-12-26T08:15:02;2.45;;;1.30;;
4971;SDS011;2501;51.214;6.768;2022-12-26T08:17:31;3.00;;;1.90;;
4971;SDS011;2501;51.214;6.768;2022-12-26T08:20:02;1.30;;;1.20;;
4971;SDS011;2501;51.214;6.768;2022-12-26T08:22:31;2.30;;;1.02;;
4971;SDS011;2501;51.214;6.768;2022-12-26T08:24:59;3.10;;;1.40;;
4971;SDS011;2501;51.214;6.768;2022-12-26T08:27:28;3.10;;;1.00;;
4971;SDS011;2501;51.214;6.768;2022-12-26T08:29:56;1.42;;;1.10;;
4971;SDS011;2501;51.214;6.768;2022-12-26T08:32:24;1.60;;;1.23;;
4971;SDS011;2501;51.214;6.768;2022-12-26T08:34:53;2.25;;;1.27;;
4971;SDS011;2501;51.214;6.768;2022-12-26T08:37:24;1.20;;;0.93;;
4971;SDS011;2501;51.214;6.768;2022-12-26T08:39:52;1.20;;;1.20;;
4971;SDS011;2501;51.214;6.768;2022-12-26T08:42:21;1.08;;;0.95;;
4971;SDS011;2501;51.214;6.768;2022-12-26T08:44:49;2.00;;;1.10;;
4971;SDS011;2501;51.214;6.768;2022-12-26T08:47:18;2.60;;;1.00;;
4971;SDS011;2501;51.214;6.768;2022-12-26T08:49:50;2.00;;;1.00;;
4971;SDS011;2501;51.214;6.768;2022-12-26T08:52:18;1.60;;;1.30;;
4971;SDS011;2501;51.214;6.768;2022-12-26T08:54:49;2.10;;;1.20;;
4971;SDS011;2501;51.214;6.768;2022-12-26T08:57:18;2.20;;;1.30;;
4971;SDS011;2501;51.214;6.768;2022-12-26T08:59:46;2.90;;;1.60;;
4971;SDS011;2501;51.214;6.768;2022-12-26T09:02:15;2.50;;;1.30;;
4971;SDS011;2501;51.214;6.768;2022-12-26T09:04:43;1.20;;;1.10;;
4971;SDS011;2501;51.214;6.768;2022-12-26T09:07:12;2.10;;;1.50;;
4971;SDS011;2501;51.214;6.768;2022-12-26T09:09:40;2.20;;;1.13;;
4971;SDS011;2501;51.214;6.768;2022-12-26T09:12:11;2.47;;;1.25;;
4971;SDS011;2501;51.214;6.768;2022-12-26T09:14:40;3.60;;;0.95;;
4971;SDS011;2501;51.214;6.768;2022-12-26T09:17:08;2.40;;;1.10;;
4971;SDS011;2501;51.214;6.768;2022-12-26T09:19:37;3.00;;;0.93;;
4971;SDS011;2501;51.214;6.768;2022-12-26T09:22:05;4.47;;;1.20;;
4971;SDS011;2501;51.214;6.768;2022-12-26T09:24:46;3.97;;;1.80;;
4971;SDS011;2501;51.214;6.768;2022-12-26T09:27:17;1.70;;;0.90;;
4971;SDS011;2501;51.214;6.768;2022-12-26T09:29:46;4.00;;;1.50;;
4971;SDS011;2501;51.214;6.768;2022-12-26T09:32:14;1.60;;;1.30;;
4971;SDS011;2501;51.214;6.768;2022-12-26T09:34:42;2.45;;;1.55;;
4971;SDS011;2501;51.214;6.768;2022-12-26T09:37:11;1.30;;;1.20;;
4971;SDS011;2501;51.214;6.768;2022-12-26T09:39:39;4.80;;;1.70;;
4971;SDS011;2501;51.214;6.768;2022-12-26T09:42:12;4.40;;;1.25;;
4971;SDS011;2501;51.214;6.768;2022-12-26T09:44:52;3.30;;;1.60;;
4971;SDS011;2501;51.214;6.768;2022-12-26T09:47:29;3.55;;;2.75;;
4971;SDS011;2501;51.214;6.768;2022-12-26T09:50:00;3.78;;;2.45;;
4971;SDS011;2501;51.214;6.768;2022-12-26T09:52:37;3.67;;;1.58;;
4971;SDS011;2501;51.214;6.768;2022-12-26T09:58:03;3.53;;;1.20;;
4971;SDS011;2501;51.214;6.768;2022-12-26T10:00:36;2.80;;;1.60;;
4971;SDS011;2501;51.214;6.768;2022-12-26T10:03:12;2.85;;;1.20;;
4971;SDS011;2501;51.214;6.768;2022-12-26T10:11:33;4.53;;;1.60;;
4971;SDS011;2501;51.214;6.768;2022-12-26T10:14:13;5.10;;;1.25;;
4971;SDS011;2501;51.214;6.768;2022-12-26T10:16:49;3.03;;;1.50;;
4971;SDS011;2501;51.214;6.768;2022-12-26T10:19:27;2.03;;;1.40;;
4971;SDS011;2501;51.214;6.768;2022-12-26T10:22:16;2.85;;;1.20;;
4971;SDS011;2501;51.214;6.768;2022-12-26T10:24:58;1.60;;;1.40;;
4971;SDS011;2501;51.214;6.768;2022-12-26T10:27:29;5.40;;;1.60;;
4971;SDS011;2501;51.214;6.768;2022-12-26T10:30:13;2.47;;;1.23;;
4971;SDS011;2501;51.214;6.768;2022-12-26T10:32:46;2.47;;;1.30;;
4971;SDS011;2501;51.214;6.768;2022-12-26T10:35:20;1.85;;;1.40;;
4971;SDS011;2501;51.214;6.768;2022-12-26T10:37:50;2.85;;;1.10;;
4971;SDS011;2501;51.214;6.768;2022-12-26T10:40:23;2.53;;;1.10;;
4971;SDS011;2501;51.214;6.768;2022-12-26T10:42:55;2.43;;;1.23;;
4971;SDS011;2501;51.214;6.768;2022-12-26T10:45:31;4.95;;;1.30;;
4971;SDS011;2501;51.214;6.768;2022-12-26T10:48:03;3.13;;;1.10;;
4971;SDS011;2501;51.214;6.768;2022-12-26T10:50:33;2.72;;;1.20;;
4971;SDS011;2501;51.214;6.768;2022-12-26T10:53:02;5.20;;;1.40;;
4971;SDS011;2501;51.214;6.768;2022-12-26T10:55:34;4.75;;;1.20;;
4971;SDS011;2501;51.214;6.768;2022-12-26T10:58:03;3.47;;;1.38;;
4971;SDS011;2501;51.214;6.768;2022-12-26T11:00:36;3.50;;;1.20;;
4971;SDS011;2501;51.214;6.768;2022-12-26T11:03:05;3.08;;;1.40;;
4971;SDS011;2501;51.214;6.768;2022-12-26T11:05:36;1.70;;;1.20;;
4971;SDS011;2501;51.214;6.768;2022-12-26T11:08:08;3.90;;;1.20;;
4971;SDS011;2501;51.214;6.768;2022-12-26T11:10:44;2.20;;;1.30;;
4971;SDS011;2501;51.214;6.768;2022-12-26T11:13:28;7.40;;;1.42;;
4971;SDS011;2501;51.214;6.768;2022-12-26T11:16:03;1.58;;;1.48;;
4971;SDS011;2501;51.214;6.768;2022-12-26T11:18:33;4.60;;;1.20;;
4971;SDS011;2501;51.214;6.768;2022-12-26T11:21:11;1.20;;;0.90;;
4971;SDS011;2501;51.214;6.768;2022-12-26T11:23:41;5.68;;;1.60;;
4971;SDS011;2501;51.214;6.768;2022-12-26T11:26:17;4.32;;;1.75;;
4971;SDS011;2501;51.214;6.768;2022-12-26T11:29:03;4.90;;;1.40;;
4971;SDS011;2501;51.214;6.768;2022-12-26T11:31:36;5.18;;;1.13;;
4971;SDS011;2501;51.214;6.768;2022-12-26T11:34:06;5.05;;;1.42;;
4971;SDS011;2501;51.214;6.768;2022-12-26T11:36:36;5.70;;;1.50;;
4971;SDS011;2501;51.214;6.768;2022-12-26T11:39:18;3.80;;;2.00;;
4971;SDS011;2501;51.214;6.768;2022-12-26T11:41:50;3.10;;;1.65;;
4971;SDS011;2501;51.214;6.768;2022-12-26T11:44:21;4.13;;;2.10;;
4971;SDS011;2501;51.214;6.768;2022-12-26T11:46:57;9.57;;;5.18;;
4971;SDS011;2501;51.214;6.768;2022-12-26T11:49:30;4.03;;;1.20;;
4971;SDS011;2501;51.214;6.768;2022-12-26T11:52:01;7.15;;;1.40;;
4971;SDS011;2501;51.214;6.768;2022-12-26T11:54:53;2.10;;;1.35;;
4971;SDS011;2501;51.214;6.768;2022-12-26T11:57:21;3.30;;;1.13;;
4971;SDS011;2501;51.214;6.768;2022-12-26T12:00:11;3.83;;;1.20;;
4971;SDS011;2501;51.214;6.768;2022-12-26T12:02:42;2.55;;;1.10;;
4971;SDS011;2501;51.214;6.768;2022-12-26T12:05:12;3.53;;;1.20;;
4971;SDS011;2501;51.214;6.768;2022-12-26T12:07:49;2.85;;;1.25;;
4971;SDS011;2501;51.214;6.768;2022-12-26T12:10:43;1.95;;;1.50;;
4971;SDS011;2501;51.214;6.768;2022-12-26T12:13:26;1.50;;;1.00;;
4971;SDS011;2501;51.214;6.768;2022-12-26T12:16:05;4.32;;;1.20;;
4971;SDS011;2501;51.214;6.768;2022-12-26T12:18:49;5.18;;;1.50;;
4971;SDS011;2501;51.214;6.768;2022-12-26T12:21:39;2.90;;;1.40;;
4971;SDS011;2501;51.214;6.768;2022-12-26T12:24:25;2.85;;;1.58;;
4971;SDS011;2501;51.214;6.768;2022-12-26T12:27:08;3.00;;;1.63;;
4971;SDS011;2501;51.214;6.768;2022-12-26T12:29:44;2.78;;;1.45;;
4971;SDS011;2501;51.214;6.768;2022-12-26T12:32:26;3.60;;;1.40;;
4971;SDS011;2501;51.214;6.768;2022-12-26T12:35:01;2.70;;;1.45;;
4971;SDS011;2501;51.214;6.768;2022-12-26T12:37:48;2.78;;;1.30;;
4971;SDS011;2501;51.214;6.768;2022-12-26T12:40:30;2.20;;;1.25;;
4971;SDS011;2501;51.214;6.768;2022-12-26T12:43:09;3.53;;;1.60;;
4971;SDS011;2501;51.214;6.768;2022-12-26T12:45:45;4.95;;;1.48;;
4971;SDS011;2501;51.214;6.768;2022-12-26T12:48:34;4.88;;;1.38;;
4971;SDS011;2501;51.214;6.768;2022-12-26T12:51:14;5.27;;;1.40;;
4971;SDS011;2501;51.214;6.768;2022-12-26T12:53:54;7.00;;;1.50;;
4971;SDS011;2501;51.214;6.768;2022-12-26T12:56:32;5.47;;;1.30;;
4971;SDS011;2501;51.214;6.768;2022-12-26T12:59:15;5.77;;;1.37;;
4971;SDS011;2501;51.214;6.768;2022-12-26T13:01:54;6.18;;;1.40;;
4971;SDS011;2501;51.214;6.768;2022-12-26T13:04:28;5.95;;;1.58;;
4971;SDS011;2501;51.214;6.768;2022-12-26T13:07:02;4.30;;;1.20;;
4971;SDS011;2501;51.214;6.768;2022-12-26T13:09:33;4.35;;;1.30;;
4971;SDS011;2501;51.214;6.768;2022-12-26T13:12:06;5.40;;;1.55;;
4971;SDS011;2501;51.214;6.768;2022-12-26T13:14:41;5.28;;;1.42;;
4971;SDS011;2501;51.214;6.768;2022-12-26T13:17:15;3.15;;;1.33;;
4971;SDS011;2501;51.214;6.768;2022-12-26T13:19:50;5.00;;;1.37;;
4971;SDS011;2501;51.214;6.768;2022-12-26T13:22:26;3.22;;;1.38;;
4971;SDS011;2501;51.214;6.768;2022-12-26T13:25:19;5.00;;;1.47;;
4971;SDS011;2501;51.214;6.768;2022-12-26T13:27:48;3.95;;;1.10;;
4971;SDS011;2501;51.214;6.768;2022-12-26T13:30:23;1.20;;;0.90;;
4971;SDS011;2501;51.214;6.768;2022-12-26T13:32:54;6.45;;;1.15;;
4971;SDS011;2501;51.214;6.768;2022-12-26T13:38:20;6.05;;;1.10;;
4971;SDS011;2501;51.214;6.768;2022-12-26T13:40:52;3.93;;;1.10;;
4971;SDS011;2501;51.214;6.768;2022-12-26T13:43:58;2.95;;;1.00;;
4971;SDS011;2501;51.214;6.768;2022-12-26T13:46:35;4.10;;;1.15;;
4971;SDS011;2501;51.214;6.768;2022-12-26T13:49:27;3.50;;;1.17;;
4971;SDS011;2501;51.214;6.768;2022-12-26T13:57:51;7.68;;;1.80;;
4971;SDS011;2501;51.214;6.768;2022-12-26T14:00:45;1.33;;;1.20;;
4971;SDS011;2501;51.214;6.768;2022-12-26T14:06:30;8.47;;;1.50;;
4971;SDS011;2501;51.214;6.768;2022-12-26T14:09:14;3.53;;;1.10;;
4971;SDS011;2501;51.214;6.768;2022-12-26T14:11:53;7.25;;;1.60;;
4971;SDS011;2501;51.214;6.768;2022-12-26T14:14:36;4.90;;;1.60;;
4971;SDS011;2501;51.214;6.768;2022-12-26T14:17:13;5.82;;;1.60;;
4971;SDS011;2501;51.214;6.768;2022-12-26T14:19:58;3.58;;;1.30;;
4971;SDS011;2501;51.214;6.768;2022-12-26T14:22:37;2.80;;;1.10;;
4971;SDS011;2501;51.214;6.768;2022-12-26T14:25:15;5.07;;;2.25;;
4971;SDS011;2501;51.214;6.768;2022-12-26T14:27:50;9.37;;;2.30;;
4971;SDS011;2501;51.214;6.768;2022-12-26T14:30:24;8.40;;;2.20;;
4971;SDS011;2501;51.214;6.768;2022-12-26T14:33:02;4.53;;;1.20;;
4971;SDS011;2501;51.214;6.768;2022-12-26T14:35:50;9.27;;;1.50;;
4971;SDS011;2501;51.214;6.768;2022-12-26T14:38:29;2.30;;;1.27;;
4971;SDS011;2501;51.214;6.768;2022-12-26T14:41:07;3.40;;;1.70;;
4971;SDS011;2501;51.214;6.768;2022-12-26T14:44:08;4.53;;;1.50;;
4971;SDS011;2501;51.214;6.768;2022-12-26T14:49:34;6.05;;;1.20;;
4971;SDS011;2501;51.214;6.768;2022-12-26T14:58:17;6.00;;;1.90;;
4971;SDS011;2501;51.214;6.768;2022-12-26T15:04:04;5.43;;;1.70;;
4971;SDS011;2501;51.214;6.768;2022-12-26T15:09:52;7.23;;;1.50;;
4971;SDS011;2501;51.214;6.768;2022-12-26T15:12:45;4.63;;;1.50;;
4971;SDS011;2501;51.214;6.768;2022-12-26T15:15:33;6.93;;;2.03;;
4971;SDS011;2501;51.214;6.768;2022-12-26T15:18:29;6.10;;;1.90;;
4971;SDS011;2501;51.214;6.768;2022-12-26T15:21:22;5.55;;;2.05;;
4971;SDS011;2501;51.214;6.768;2022-12-26T15:24:10;8.50;;;1.80;;
4971;SDS011;2501;51.214;6.768;2022-12-26T15:27:06;8.00;;;1.65;;
4971;SDS011;2501;51.214;6.768;2022-12-26T15:30:03;4.85;;;1.40;;
4971;SDS011;2501;51.214;6.768;2022-12-26T15:32:44;9.75;;;1.55;;
4971;SDS011;2501;51.214;6.768;2022-12-26T15:35:20;7.28;;;1.70;;
4971;SDS011;2501;51.214;6.768;2022-12-26T15:38:00;3.38;;;1.50;;
4971;SDS011;2501;51.214;6.768;2022-12-26T15:40:41;5.82;;;1.40;;
4971;SDS011;2501;51.214;6.768;2022-12-26T15:43:30;9.60;;;2.05;;
4971;SDS011;2501;51.214;6.768;2022-12-26T15:46:25;6.20;;;1.83;;
4971;SDS011;2501;51.214;6.768;2022-12-26T15:49:01;8.85;;;1.58;;
4971;SDS011;2501;51.214;6.768;2022-12-26T15:51:48;4.15;;;1.67;;
4971;SDS011;2501;51.214;6.768;2022-12-26T15:54:32;5.63;;;1.55;;
4971;SDS011;2501;51.214;6.768;2022-12-26T15:57:23;5.15;;;1.50;;
4971;SDS011;2501;51.214;6.768;2022-12-26T16:00:07;7.28;;;2.20;;
4971;SDS011;2501;51.214;6.768;2022-12-26T16:02:39;9.25;;;1.90;;
4971;SDS011;2501;51.214;6.768;2022-12-26T16:05:20;4.20;;;1.67;;
4971;SDS011;2501;51.214;6.768;2022-12-26T16:08:10;4.90;;;1.88;;
4971;SDS011;2501;51.214;6.768;2022-12-26T16:11:12;5.85;;;1.90;;
4971;SDS011;2501;51.214;6.768;2022-12-26T16:13:51;6.20;;;2.20;;
4971;SDS011;2501;51.214;6.768;2022-12-26T16:16:31;3.07;;;1.90;;
4971;SDS011;2501;51.214;6.768;2022-12-26T16:19:13;6.10;;;1.70;;
4971;SDS011;2501;51.214;6.768;2022-12-26T16:21:44;5.45;;;2.10;;
4971;SDS011;2501;51.214;6.768;2022-12-26T16:24:27;7.10;;;1.88;;
4971;SDS011;2501;51.214;6.768;2022-12-26T16:26:58;5.03;;;1.48;;
4971;SDS011;2501;51.214;6.768;2022-12-26T16:29:28;8.15;;;2.08;;
4971;SDS011;2501;51.214;6.768;2022-12-26T16:32:04;7.15;;;1.90;;
4971;SDS011;2501;51.214;6.768;2022-12-26T16:34:34;5.13;;;1.80;;
4971;SDS011;2501;51.214;6.768;2022-12-26T16:37:03;6.05;;;1.90;;
4971;SDS011;2501;51.214;6.768;2022-12-26T16:39:32;5.93;;;1.85;;
4971;SDS011;2501;51.214;6.768;2022-12-26T16:42:02;8.40;;;2.33;;
4971;SDS011;2501;51.214;6.768;2022-12-26T16:44:36;4.63;;;1.90;;